createdAt,value
2019-02-08T00:01:50.277Z,101165.13
2019-02-08T00:04:31.413Z,101162.63
2019-02-08T00:07:12.216Z,101168.07
2019-02-08T00:09:53.507Z,101168.87
2019-02-08T00:12:34.648Z,101173.40
2019-02-08T00:15:15.455Z,101176.73
2019-02-08T00:17:57.099Z,101181.98
2019-02-08T00:20:38.663Z,101181.11
2019-02-08T00:23:26.706Z,101183.47
2019-02-08T00:26:02.005Z,101193.29
2019-02-08T00:28:43.466Z,101204.70
2019-02-08T00:31:24.202Z,101200.80
2019-02-08T00:34:05.465Z,101201.81
2019-02-08T00:36:46.360Z,101206.70
2019-02-08T00:39:27.817Z,101201.84
2019-02-08T00:42:08.460Z,101204.70
2019-02-08T00:44:49.929Z,101214.06
2019-02-08T00:47:31.191Z,101208.73
2019-02-08T00:50:12.765Z,101212.27
2019-02-08T00:52:54.537Z,101211.87
2019-02-08T00:55:35.713Z,101208.52
2019-02-08T00:58:16.638Z,101218.59
2019-02-08T01:00:58.060Z,101222.77
2019-02-08T01:03:39.652Z,101216.16
2019-02-08T01:06:21.038Z,101218.59
2019-02-08T01:09:02.049Z,101226.75
2019-02-08T01:11:43.438Z,101223.86
2019-02-08T01:14:24.758Z,101227.88
2019-02-08T01:17:05.737Z,101227.94
2019-02-08T01:19:47.287Z,101228.73
2019-02-08T01:22:28.414Z,101232.70
2019-02-08T01:25:09.151Z,101235.86
2019-02-08T01:27:50.183Z,101243.14
2019-02-08T01:30:31.341Z,101245.32
2019-02-08T01:33:13.145Z,101258.19
2019-02-08T01:35:54.340Z,101262.08
2019-02-08T01:38:35.927Z,101270.10
2019-02-08T01:41:17.326Z,101282.67
2019-02-08T01:43:58.508Z,101293.08
2019-02-08T01:46:41.291Z,101296.09
2019-02-08T01:49:22.329Z,101298.20
2019-02-08T01:52:03.381Z,101300.05
2019-02-08T01:54:44.836Z,101304.27
2019-02-08T01:57:25.275Z,101311.87
2019-02-08T02:00:06.480Z,101311.95
2019-02-08T02:02:47.452Z,101319.89
2019-02-08T02:05:28.398Z,101318.50
2019-02-08T02:08:10.154Z,101319.97
2019-02-08T02:10:50.718Z,101329.91
2019-02-08T02:13:31.588Z,101338.05
2019-02-08T02:16:12.631Z,101347.20
2019-02-08T02:18:53.574Z,101351.26
2019-02-08T02:21:34.494Z,101348.33
2019-02-08T02:24:15.449Z,101347.40
2019-02-08T02:26:56.713Z,101347.88
2019-02-08T02:29:38.503Z,101353.58
2019-02-08T02:32:19.567Z,101351.38
2019-02-08T02:35:00.584Z,101359.50
2019-02-08T02:37:41.967Z,101368.94
2019-02-08T02:40:23.115Z,101371.33
2019-02-08T02:43:04.753Z,101371.55
2019-02-08T02:45:45.846Z,101380.25
2019-02-08T02:48:27.574Z,101390.27
2019-02-08T02:51:09.202Z,101391.80
2019-02-08T02:53:50.137Z,101396.02
2019-02-08T02:56:31.225Z,101409.27
2019-02-08T02:59:12.742Z,101411.75
2019-02-08T03:01:53.693Z,101410.08
2019-02-08T03:04:34.682Z,101408.20
2019-02-08T03:07:15.966Z,101410.84
2019-02-08T03:09:57.433Z,101417.91
2019-02-08T03:12:38.495Z,101418.52
2019-02-08T03:15:20.016Z,101415.28
2019-02-08T03:18:00.976Z,101415.31
2019-02-08T03:20:42.014Z,101418.16
2019-02-08T03:23:22.814Z,101425.81
2019-02-08T03:26:09.259Z,101430.64
2019-02-08T03:28:50.051Z,101428.08
2019-02-08T03:31:30.800Z,101430.75
2019-02-08T03:34:11.439Z,101434.89
2019-02-08T03:39:43.515Z,101440.95
2019-02-08T03:42:24.770Z,101443.52
2019-02-08T03:45:05.551Z,101441.75
2019-02-08T03:47:46.527Z,101443.50
2019-02-08T03:50:27.067Z,101440.33
2019-02-08T03:53:07.875Z,101443.88
2019-02-08T03:55:48.612Z,101437.98
2019-02-08T03:58:29.513Z,101435.11
2019-02-08T04:01:10.780Z,101436.78
2019-02-08T04:03:52.355Z,101432.53
2019-02-08T04:06:32.923Z,101431.33
2019-02-08T04:09:13.483Z,101432.98
2019-02-08T04:11:54.536Z,101435.58
2019-02-08T04:14:35.480Z,101442.05
2019-02-08T04:17:16.404Z,101434.48
2019-02-08T04:19:56.666Z,101436.53
2019-02-08T04:22:37.879Z,101436.77
2019-02-08T04:25:17.845Z,101431.80
2019-02-08T04:27:58.642Z,101424.95
2019-02-08T04:30:39.433Z,101424.31
2019-02-08T04:33:19.715Z,101427.59
2019-02-08T04:36:00.549Z,101431.72
2019-02-08T04:38:40.537Z,101429.30
2019-02-08T04:41:20.999Z,101422.69
2019-02-08T04:44:01.743Z,101414.48
2019-02-08T04:46:42.405Z,101414.59
2019-02-08T04:49:23.061Z,101416.56
2019-02-08T04:52:03.927Z,101411.64
2019-02-08T04:54:44.589Z,101410.03
2019-02-08T04:57:25.249Z,101410.41
2019-02-08T05:00:05.532Z,101410.20
2019-02-08T05:02:46.293Z,101418.41
2019-02-08T05:05:26.562Z,101413.11
2019-02-08T05:08:07.194Z,101406.06
2019-02-08T05:10:48.382Z,101400.20
2019-02-08T05:13:29.258Z,101396.91
2019-02-08T05:16:09.713Z,101395.92
2019-02-08T05:18:49.520Z,101385.94
2019-02-08T05:21:29.611Z,101376.82
2019-02-08T05:24:10.025Z,101376.08
2019-02-08T05:26:50.013Z,101369.66
2019-02-08T05:29:30.081Z,101371.31
2019-02-08T05:32:10.655Z,101366.66
2019-02-08T05:34:51.039Z,101362.58
2019-02-08T05:37:31.362Z,101352.98
2019-02-08T05:40:11.429Z,101351.72
2019-02-08T05:42:51.891Z,101357.05
2019-02-08T05:45:32.649Z,101359.36
2019-02-08T05:48:13.033Z,101358.46
2019-02-08T05:50:53.009Z,101357.11
2019-02-08T05:53:33.678Z,101357.20
2019-02-08T05:56:13.890Z,101347.84
2019-02-08T05:58:54.159Z,101347.75
2019-02-08T06:01:34.172Z,101340.16
2019-02-08T06:04:14.871Z,101335.02
2019-02-08T06:06:58.776Z,101332.77
2019-02-08T06:09:39.784Z,101327.14
2019-02-08T06:12:20.685Z,101323.44
2019-02-08T06:15:02.187Z,101328.03
2019-02-08T06:17:43.357Z,101325.81
2019-02-08T06:20:24.563Z,101309.80
2019-02-08T06:23:04.845Z,101295.50
2019-02-08T06:25:46.796Z,101279.27
2019-02-08T06:28:27.919Z,101276.17
2019-02-08T06:31:08.927Z,101270.91
2019-02-08T06:33:49.373Z,101271.95
2019-02-08T06:36:29.832Z,101260.27
2019-02-08T06:39:10.839Z,101255.23
2019-02-08T06:41:51.629Z,101249.81
2019-02-08T06:44:32.336Z,101242.88
2019-02-08T06:47:13.224Z,101240.91
2019-02-08T06:49:53.382Z,101239.69
2019-02-08T06:52:33.921Z,101233.39
2019-02-08T06:55:17.002Z,101226.01
2019-02-08T06:58:07.772Z,101217.42
2019-02-08T07:00:49.739Z,101201.65
2019-02-08T07:03:30.936Z,101201.50
2019-02-08T07:06:11.591Z,101199.07
2019-02-08T07:08:52.125Z,101196.72
2019-02-08T07:11:32.533Z,101196.69
2019-02-08T07:14:13.209Z,101188.09
2019-02-08T07:16:53.531Z,101175.91
2019-02-08T07:19:33.553Z,101173.75
2019-02-08T07:22:14.763Z,101169.77
2019-02-08T07:24:54.744Z,101164.87
2019-02-08T07:27:35.605Z,101154.78
2019-02-08T07:30:16.118Z,101149.49
2019-02-08T07:32:57.739Z,101137.30
2019-02-08T07:35:39.196Z,101136.47
2019-02-08T07:38:20.522Z,101140.84
2019-02-08T07:41:04.775Z,101131.56
2019-02-08T07:43:48.026Z,101132.41
2019-02-08T07:46:28.900Z,101139.70
2019-02-08T07:49:09.017Z,101138.14
2019-02-08T07:51:49.992Z,101134.55
2019-02-08T07:54:30.757Z,101127.04
2019-02-08T07:57:12.691Z,101115.01
2019-02-08T07:59:52.832Z,101107.67
2019-02-08T08:02:34.422Z,101104.78
2019-02-08T08:05:15.883Z,101098.47
2019-02-08T08:10:49.189Z,101090.41
2019-02-08T08:13:30.669Z,101086.81
2019-02-08T08:18:54.990Z,101070.61
2019-02-08T08:24:21.167Z,101063.25
2019-02-08T08:27:06.257Z,101059.95
2019-02-08T08:29:52.503Z,101062.97
2019-02-08T08:32:35.772Z,101057.81
2019-02-08T08:35:19.790Z,101058.64
2019-02-08T08:40:53.113Z,101065.00
2019-02-08T08:43:37.933Z,101060.33
2019-02-08T08:46:18.607Z,101055.92
2019-02-08T08:49:00.542Z,101061.30
2019-02-08T08:51:43.983Z,101059.96
2019-02-08T08:54:24.413Z,101061.52
2019-02-08T08:57:05.266Z,101057.47
2019-02-08T08:59:47.988Z,101057.35
2019-02-08T09:02:31.177Z,101057.00
2019-02-08T09:05:12.174Z,101053.32
2019-02-08T09:07:52.559Z,101048.48
2019-02-08T09:10:33.608Z,101052.29
2019-02-08T09:13:15.039Z,101053.18
2019-02-08T09:15:56.395Z,101041.18
2019-02-08T09:18:38.957Z,101038.09
2019-02-08T09:24:08.169Z,101033.44
2019-02-08T09:26:50.043Z,101027.52
2019-02-08T09:29:34.491Z,101036.00
2019-02-08T09:32:16.846Z,101028.22
2019-02-08T09:34:58.232Z,101030.82
2019-02-08T09:37:43.903Z,101025.16
2019-02-08T09:40:25.940Z,101019.98
2019-02-08T09:43:06.883Z,101015.43
2019-02-08T09:45:48.976Z,101010.81
2019-02-08T09:48:35.548Z,101011.12
2019-02-08T09:51:17.526Z,101010.69
2019-02-08T09:53:58.917Z,101006.18
2019-02-08T09:56:40.639Z,101005.66
2019-02-08T09:59:22.069Z,101000.08
2019-02-08T10:02:02.547Z,101002.33
2019-02-08T10:09:37.766Z,100996.07
2019-02-08T10:12:18.326Z,100994.64
2019-02-08T10:14:58.389Z,100999.27
2019-02-08T10:17:39.048Z,101004.52
2019-02-08T10:20:19.513Z,101005.72
2019-02-08T10:22:59.967Z,101014.17
2019-02-08T10:25:41.167Z,101017.70
2019-02-08T10:28:21.931Z,101014.62
2019-02-08T10:31:03.179Z,101013.81
2019-02-08T10:33:44.353Z,101011.28
2019-02-08T10:36:25.042Z,101008.95
2019-02-08T10:39:05.677Z,101012.65
2019-02-08T10:41:47.187Z,101025.09
2019-02-08T10:44:27.648Z,101019.06
2019-02-08T10:47:17.923Z,101020.20
2019-02-08T10:49:57.640Z,101015.16
2019-02-08T10:52:38.118Z,101014.91
2019-02-08T10:55:18.343Z,101013.25
2019-02-08T10:57:59.665Z,101012.58
2019-02-08T11:00:40.101Z,101021.19
2019-02-08T11:03:21.263Z,101018.03
2019-02-08T11:06:03.195Z,101013.50
2019-02-08T11:08:43.753Z,101020.02
2019-02-08T11:11:24.622Z,101016.97
2019-02-08T11:14:05.746Z,101025.08
2019-02-08T11:16:46.712Z,101019.33
2019-02-08T11:19:28.643Z,101013.44
2019-02-08T11:22:09.682Z,101018.45
2019-02-08T11:27:27.122Z,101008.25
2019-02-08T11:30:07.908Z,101009.98
2019-02-08T11:32:48.861Z,101016.61
2019-02-08T11:35:30.295Z,101029.59
2019-02-08T11:38:11.256Z,101026.17
2019-02-08T11:40:51.828Z,101016.94
2019-02-08T11:43:32.560Z,101008.06
2019-02-08T11:46:13.630Z,101001.80
2019-02-08T11:48:54.391Z,101004.58
2019-02-08T11:51:35.802Z,101028.41
2019-02-08T11:54:17.378Z,101037.59
2019-02-08T11:56:58.342Z,101030.09
2019-02-08T11:59:39.823Z,101027.36
2019-02-08T12:02:20.599Z,101008.19
2019-02-08T12:05:01.288Z,100993.55
2019-02-08T12:07:42.138Z,101005.62
2019-02-08T12:10:22.731Z,101005.70
2019-02-08T12:13:03.375Z,101019.16
2019-02-08T12:15:43.987Z,101029.63
2019-02-08T12:18:25.033Z,101033.67
2019-02-08T12:21:05.695Z,101022.53
2019-02-08T12:23:46.573Z,101018.39
2019-02-08T12:26:27.512Z,101011.61
2019-02-08T12:29:08.467Z,101036.77
2019-02-08T12:31:48.974Z,101030.98
2019-02-08T12:34:29.245Z,101032.97
2019-02-08T12:37:09.918Z,101030.52
2019-02-08T12:39:50.801Z,101036.89
2019-02-08T12:42:31.656Z,101041.06
2019-02-08T12:45:12.636Z,101041.85
2019-02-08T12:47:53.595Z,101048.69
2019-02-08T12:50:34.252Z,101049.03
2019-02-08T12:53:15.531Z,101050.89
2019-02-08T12:55:56.784Z,101052.72
2019-02-08T12:58:37.687Z,101057.22
2019-02-08T13:01:18.712Z,101059.39
2019-02-08T13:03:58.931Z,101065.70
2019-02-08T13:06:43.127Z,101059.63
2019-02-08T13:09:24.996Z,101065.95
2019-02-08T13:12:06.059Z,101067.27
2019-02-08T13:14:47.032Z,101079.42
2019-02-08T13:17:27.789Z,101088.20
2019-02-08T13:20:09.269Z,101090.67
2019-02-08T13:22:49.905Z,101095.30
2019-02-08T13:25:31.673Z,101095.81
2019-02-08T13:28:15.158Z,101098.80
2019-02-08T13:30:57.476Z,101100.63
2019-02-08T13:33:40.289Z,101095.94
2019-02-08T13:36:24.524Z,101110.06
2019-02-08T13:39:06.182Z,101110.84
2019-02-08T13:41:47.183Z,101116.22
2019-02-08T13:44:28.922Z,101112.94
2019-02-08T13:47:14.426Z,101119.23
2019-02-08T13:49:56.458Z,101119.67
2019-02-08T13:52:37.398Z,101121.59
2019-02-08T13:55:17.672Z,101133.33
2019-02-08T13:57:58.280Z,101140.92
2019-02-08T14:00:39.443Z,101147.89
2019-02-08T14:03:19.731Z,101151.08
2019-02-08T14:06:01.300Z,101158.86
2019-02-08T14:08:41.856Z,101150.02
2019-02-08T14:11:22.548Z,101150.17
2019-02-08T14:14:03.306Z,101155.00
2019-02-08T14:16:44.257Z,101158.98
2019-02-08T14:19:24.784Z,101159.38
2019-02-08T14:22:09.937Z,101167.50
2019-02-08T14:24:50.925Z,101164.69
2019-02-08T14:27:31.831Z,101166.13
2019-02-08T14:30:17.764Z,101176.36
2019-02-08T14:33:01.385Z,101179.37
2019-02-08T14:35:42.449Z,101182.86
2019-02-08T14:38:23.412Z,101192.32
2019-02-08T14:41:04.330Z,101194.92
2019-02-08T14:43:44.732Z,101190.11
2019-02-08T14:46:25.638Z,101200.88
2019-02-08T14:49:06.541Z,101201.88
2019-02-08T14:51:47.827Z,101203.02
2019-02-08T14:54:28.857Z,101214.25
2019-02-08T14:57:16.297Z,101222.52
2019-02-08T14:59:50.860Z,101215.34
2019-02-08T15:02:32.082Z,101217.48
2019-02-08T15:05:12.231Z,101222.20
2019-02-08T15:07:52.498Z,101222.44
2019-02-08T15:10:32.528Z,101229.22
2019-02-08T15:13:13.116Z,101232.30
2019-02-08T15:15:52.873Z,101228.14
2019-02-08T15:18:32.860Z,101227.80
2019-02-08T15:21:15.633Z,101229.47
2019-02-08T15:23:56.548Z,101232.06
2019-02-08T15:26:36.510Z,101248.86
2019-02-08T15:29:17.312Z,101260.26
2019-02-08T15:31:57.317Z,101261.21
2019-02-08T15:34:38.142Z,101264.50
2019-02-08T15:37:18.921Z,101279.58
2019-02-08T15:39:59.061Z,101274.42
2019-02-08T15:42:39.725Z,101279.51
2019-02-08T15:45:19.771Z,101279.14
2019-02-08T15:48:00.335Z,101282.04
2019-02-08T15:50:40.942Z,101273.22
2019-02-08T15:53:21.084Z,101279.02
2019-02-08T15:56:01.951Z,101279.42
2019-02-08T15:58:42.299Z,101278.50
2019-02-08T16:01:23.168Z,101283.03
2019-02-08T16:04:03.852Z,101283.66
2019-02-08T16:06:43.942Z,101292.34
2019-02-08T16:09:24.805Z,101297.22
2019-02-08T16:12:05.423Z,101285.42
2019-02-08T16:14:46.106Z,101284.28
2019-02-08T16:17:28.494Z,101291.52
2019-02-08T16:20:09.764Z,101294.44
2019-02-08T16:22:50.234Z,101286.05
2019-02-08T16:25:30.498Z,101275.39
2019-02-08T16:28:11.110Z,101279.91
2019-02-08T16:30:54.682Z,101279.94
2019-02-08T16:33:35.647Z,101276.04
2019-02-08T16:36:17.004Z,101272.86
2019-02-08T16:38:58.693Z,101276.55
2019-02-08T16:41:40.146Z,101286.33
2019-02-08T16:44:21.117Z,101273.95
2019-02-08T16:47:02.485Z,101274.00
2019-02-08T16:49:42.910Z,101274.73
2019-02-08T16:52:24.005Z,101274.50
2019-02-08T16:55:05.010Z,101273.74
2019-02-08T17:00:35.518Z,101288.00
2019-02-08T17:03:17.261Z,101285.53
2019-02-08T17:05:58.609Z,101289.94
2019-02-08T17:08:39.062Z,101289.70
2019-02-08T17:11:19.008Z,101288.22
2019-02-08T17:13:59.100Z,101291.95
2019-02-08T17:16:39.910Z,101291.61
2019-02-08T17:19:20.712Z,101292.16
2019-02-08T17:22:01.233Z,101296.62
2019-02-08T17:24:41.446Z,101298.14
2019-02-08T17:27:21.717Z,101287.01
2019-02-08T17:30:01.652Z,101273.10
2019-02-08T17:32:41.682Z,101262.28
2019-02-08T17:35:21.930Z,101262.30
2019-02-08T17:38:02.515Z,101261.30
2019-02-08T17:40:42.877Z,101254.61
2019-02-08T17:43:23.017Z,101250.91
2019-02-08T17:46:04.469Z,101261.17
2019-02-08T17:48:45.390Z,101264.46
2019-02-08T17:51:25.677Z,101261.32
2019-02-08T17:54:06.063Z,101263.06
2019-02-08T17:56:46.366Z,101255.77
2019-02-08T17:59:27.439Z,101259.63
2019-02-08T18:02:07.905Z,101268.38
2019-02-08T18:04:48.155Z,101262.06
2019-02-08T18:07:28.218Z,101258.32
2019-02-08T18:10:08.271Z,101254.65
2019-02-08T18:12:48.528Z,101256.24
2019-02-08T18:15:29.317Z,101249.24
2019-02-08T18:18:09.802Z,101246.45
2019-02-08T18:20:49.931Z,101246.59
2019-02-08T18:23:30.192Z,101258.88
2019-02-08T18:26:10.362Z,101263.76
2019-02-08T18:28:50.739Z,101258.53
2019-02-08T18:31:31.052Z,101250.11
2019-02-08T18:34:11.180Z,101250.33
2019-02-08T18:36:51.569Z,101243.89
2019-02-08T18:39:31.665Z,101247.37
2019-02-08T18:42:12.486Z,101256.16
2019-02-08T18:44:52.348Z,101263.73
2019-02-08T18:47:33.398Z,101269.86
2019-02-08T18:50:13.483Z,101269.17
2019-02-08T18:52:53.348Z,101270.89
2019-02-08T18:55:33.345Z,101277.86
2019-02-08T18:58:18.844Z,101276.99
2019-02-08T19:00:54.263Z,101282.56
2019-02-08T19:03:35.153Z,101281.94
2019-02-08T19:06:15.394Z,101282.28
2019-02-08T19:08:55.448Z,101269.31
2019-02-08T19:11:36.041Z,101258.54
2019-02-08T19:14:16.037Z,101256.38
2019-02-08T19:16:56.199Z,101248.88
2019-02-08T19:19:36.428Z,101247.73
2019-02-08T19:22:16.916Z,101265.20
2019-02-08T19:24:56.924Z,101270.34
2019-02-08T19:27:37.269Z,101281.70
2019-02-08T19:30:17.594Z,101290.64
2019-02-08T19:32:57.977Z,101289.81
2019-02-08T19:35:37.766Z,101278.50
2019-02-08T19:38:17.687Z,101280.38
2019-02-08T19:40:57.893Z,101269.26
2019-02-08T19:43:38.136Z,101253.84
2019-02-08T19:46:18.217Z,101252.76
2019-02-08T19:48:58.098Z,101247.47
2019-02-08T19:51:38.012Z,101250.16
2019-02-08T19:54:17.962Z,101247.91
2019-02-08T19:56:58.127Z,101249.33
2019-02-08T19:59:38.063Z,101247.91
2019-02-08T20:02:17.850Z,101254.48
2019-02-08T20:04:57.712Z,101249.73
2019-02-08T20:07:38.239Z,101234.19
2019-02-08T20:10:18.446Z,101221.84
2019-02-08T20:12:59.013Z,101226.10
2019-02-08T20:15:39.098Z,101233.92
2019-02-08T20:18:19.273Z,101220.28
2019-02-08T20:20:59.872Z,101220.72
2019-02-08T20:23:40.616Z,101215.09
2019-02-08T20:26:20.819Z,101208.78
2019-02-08T20:29:00.819Z,101196.55
2019-02-08T20:31:41.506Z,101194.79
2019-02-08T20:34:21.739Z,101191.86
2019-02-08T20:37:01.624Z,101177.25
2019-02-08T20:39:41.958Z,101176.44
2019-02-08T20:42:21.765Z,101173.14
2019-02-08T20:45:02.281Z,101187.33
2019-02-08T20:47:42.533Z,101214.99
2019-02-08T20:50:22.576Z,101216.76
2019-02-08T20:53:03.911Z,101211.62
2019-02-08T20:55:44.635Z,101204.96
2019-02-08T20:58:25.685Z,101200.42
2019-02-08T21:01:06.791Z,101191.45
2019-02-08T21:03:47.764Z,101190.44
2019-02-08T21:06:28.209Z,101194.64
2019-02-08T21:09:09.101Z,101166.66
2019-02-08T21:11:50.052Z,101142.34
2019-02-08T21:14:31.283Z,101156.78
2019-02-08T21:17:12.294Z,101154.63
2019-02-08T21:19:53.061Z,101139.02
2019-02-08T21:22:33.955Z,101136.91
2019-02-08T21:25:14.603Z,101116.33
2019-02-08T21:27:54.538Z,101096.80
2019-02-08T21:30:35.104Z,101083.96
2019-02-08T21:33:15.575Z,101081.17
2019-02-08T21:35:56.441Z,101095.63
2019-02-08T21:38:37.109Z,101111.38
2019-02-08T21:41:17.664Z,101084.54
2019-02-08T21:43:58.957Z,101069.33
2019-02-08T21:46:39.912Z,101049.88
2019-02-08T21:49:20.621Z,101035.33
2019-02-08T21:52:02.176Z,101037.43
2019-02-08T21:54:42.856Z,101059.88
2019-02-08T21:57:23.835Z,101070.12
2019-02-08T22:00:04.633Z,101075.89
2019-02-08T22:02:45.374Z,101065.47
2019-02-08T22:05:25.745Z,101056.52
2019-02-08T22:08:06.126Z,101068.05
2019-02-08T22:10:46.751Z,101073.88
2019-02-08T22:13:27.451Z,101072.99
2019-02-08T22:16:07.700Z,101061.56
2019-02-08T22:18:47.756Z,101048.80
2019-02-08T22:21:28.026Z,101027.33
2019-02-08T22:24:08.001Z,101010.66
2019-02-08T22:26:48.067Z,101006.32
2019-02-08T22:29:28.068Z,101015.45
2019-02-08T22:32:07.983Z,101032.09
2019-02-08T22:34:48.115Z,101021.47
2019-02-08T22:37:28.088Z,101013.58
2019-02-08T22:40:08.575Z,101004.66
2019-02-08T22:42:48.665Z,100994.93
2019-02-08T22:45:29.066Z,100985.00
2019-02-08T22:48:09.158Z,100989.51
2019-02-08T22:50:49.166Z,100998.06
2019-02-08T22:53:29.027Z,100997.95
2019-02-08T22:56:08.885Z,101007.04
2019-02-08T22:58:49.550Z,101008.96
2019-02-08T23:01:29.743Z,100997.52
2019-02-08T23:04:10.602Z,100984.31
2019-02-08T23:06:51.372Z,100989.51
2019-02-08T23:09:32.528Z,100996.50
2019-02-08T23:12:12.786Z,101013.42
2019-02-08T23:14:53.988Z,101018.59
2019-02-08T23:17:34.637Z,101025.25
2019-02-08T23:20:15.084Z,101027.34
2019-02-08T23:22:55.944Z,101018.83
2019-02-08T23:25:36.629Z,101017.08
2019-02-08T23:28:16.886Z,101018.53
2019-02-08T23:30:57.330Z,101012.84
2019-02-08T23:33:38.203Z,101014.44
2019-02-08T23:36:18.801Z,101020.17
2019-02-08T23:39:00.406Z,101030.52
2019-02-08T23:41:41.683Z,101033.06
2019-02-08T23:44:22.627Z,101036.08
2019-02-08T23:47:03.918Z,101036.64
2019-02-08T23:49:43.948Z,101034.09
2019-02-08T23:52:24.628Z,101043.05
2019-02-08T23:55:05.585Z,101042.70
2019-02-08T23:57:46.303Z,101046.11
